sensor_id;sensor_type;location;lat;lon;timestamp;P1;durP1;ratioP1;P2;durP2;ratioP2
69985;SDS011;57328;52.054;5.294;2023-09-07T00:01:19;9.90;;;4.53;;
69985;SDS011;57328;52.054;5.294;2023-09-07T00:03:47;9.35;;;5.38;;
69985;SDS011;57328;52.054;5.294;2023-09-07T00:06:14;11.30;;;6.00;;
69985;SDS011;57328;52.054;5.294;2023-09-07T00:08:42;15.98;;;5.43;;
69985;SDS011;57328;52.054;5.294;2023-09-07T00:11:09;9.95;;;5.32;;
69985;SDS011;57328;52.054;5.294;2023-09-07T00:13:36;10.43;;;5.25;;
69985;SDS011;57328;52.054;5.294;2023-09-07T00:16:04;7.72;;;4.75;;
69985;SDS011;57328;52.054;5.294;2023-09-07T00:18:31;9.40;;;5.50;;
69985;SDS011;57328;52.054;5.294;2023-09-07T00:20:59;7.40;;;3.72;;
69985;SDS011;57328;52.054;5.294;2023-09-07T00:23:27;10.20;;;4.13;;
69985;SDS011;57328;52.054;5.294;2023-09-07T00:25:54;8.25;;;4.00;;
69985;SDS011;57328;52.054;5.294;2023-09-07T00:28:21;7.28;;;3.58;;
69985;SDS011;57328;52.054;5.294;2023-09-07T00:30:49;7.28;;;3.83;;
69985;SDS011;57328;52.054;5.294;2023-09-07T00:33:16;9.30;;;5.45;;
69985;SDS011;57328;52.054;5.294;2023-09-07T00:35:43;10.82;;;5.47;;
69985;SDS011;57328;52.054;5.294;2023-09-07T00:38:10;11.90;;;5.93;;
69985;SDS011;57328;52.054;5.294;2023-09-07T00:40:38;11.45;;;5.25;;
69985;SDS011;57328;52.054;5.294;2023-09-07T00:43:05;11.15;;;5.47;;
69985;SDS011;57328;52.054;5.294;2023-09-07T00:45:32;11.02;;;5.32;;
69985;SDS011;57328;52.054;5.294;2023-09-07T00:48:00;11.32;;;5.65;;
69985;SDS011;57328;52.054;5.294;2023-09-07T00:50:27;11.02;;;5.38;;
69985;SDS011;57328;52.054;5.294;2023-09-07T00:52:54;11.82;;;5.85;;
69985;SDS011;57328;52.054;5.294;2023-09-07T00:55:21;9.90;;;5.38;;
69985;SDS011;57328;52.054;5.294;2023-09-07T00:57:49;8.98;;;5.57;;
69985;SDS011;57328;52.054;5.294;2023-09-07T01:00:16;9.98;;;5.80;;
69985;SDS011;57328;52.054;5.294;2023-09-07T01:02:44;11.80;;;6.03;;
69985;SDS011;57328;52.054;5.294;2023-09-07T01:05:12;10.88;;;5.70;;
69985;SDS011;57328;52.054;5.294;2023-09-07T01:07:44;12.20;;;6.57;;
69985;SDS011;57328;52.054;5.294;2023-09-07T01:10:13;12.25;;;6.43;;
69985;SDS011;57328;52.054;5.294;2023-09-07T01:12:40;11.65;;;5.72;;
69985;SDS011;57328;52.054;5.294;2023-09-07T01:15:07;10.68;;;5.38;;
69985;SDS011;57328;52.054;5.294;2023-09-07T01:17:36;10.07;;;5.28;;
69985;SDS011;57328;52.054;5.294;2023-09-07T01:20:04;11.40;;;5.70;;
69985;SDS011;57328;52.054;5.294;2023-09-07T01:22:38;11.70;;;5.95;;
69985;SDS011;57328;52.054;5.294;2023-09-07T01:25:05;11.13;;;5.45;;
69985;SDS011;57328;52.054;5.294;2023-09-07T01:27:33;9.90;;;5.93;;
69985;SDS011;57328;52.054;5.294;2023-09-07T01:30:01;10.00;;;5.53;;
69985;SDS011;57328;52.054;5.294;2023-09-07T01:34:57;10.85;;;6.40;;
69985;SDS011;57328;52.054;5.294;2023-09-07T01:37:24;11.15;;;5.97;;
69985;SDS011;57328;52.054;5.294;2023-09-07T01:39:52;9.73;;;6.05;;
69985;SDS011;57328;52.054;5.294;2023-09-07T01:42:19;13.68;;;5.53;;
69985;SDS011;57328;52.054;5.294;2023-09-07T01:44:48;12.05;;;6.03;;
69985;SDS011;57328;52.054;5.294;2023-09-07T01:47:15;10.85;;;5.20;;
69985;SDS011;57328;52.054;5.294;2023-09-07T01:49:43;10.65;;;6.13;;
69985;SDS011;57328;52.054;5.294;2023-09-07T01:52:10;10.25;;;6.25;;
69985;SDS011;57328;52.054;5.294;2023-09-07T01:54:37;9.45;;;5.47;;
69985;SDS011;57328;52.054;5.294;2023-09-07T01:57:04;10.13;;;5.82;;
69985;SDS011;57328;52.054;5.294;2023-09-07T01:59:32;10.98;;;6.30;;
69985;SDS011;57328;52.054;5.294;2023-09-07T02:01:59;11.77;;;5.97;;
69985;SDS011;57328;52.054;5.294;2023-09-07T02:04:26;7.10;;;3.92;;
69985;SDS011;57328;52.054;5.294;2023-09-07T02:06:54;12.65;;;5.75;;
69985;SDS011;57328;52.054;5.294;2023-09-07T02:09:21;10.27;;;5.97;;
69985;SDS011;57328;52.054;5.294;2023-09-07T02:11:48;8.45;;;5.18;;
69985;SDS011;57328;52.054;5.294;2023-09-07T02:14:16;9.65;;;4.05;;
69985;SDS011;57328;52.054;5.294;2023-09-07T02:16:43;7.97;;;4.97;;
69985;SDS011;57328;52.054;5.294;2023-09-07T02:19:10;7.75;;;4.50;;
69985;SDS011;57328;52.054;5.294;2023-09-07T02:21:38;8.18;;;3.97;;
69985;SDS011;57328;52.054;5.294;2023-09-07T02:24:05;10.90;;;4.88;;
69985;SDS011;57328;52.054;5.294;2023-09-07T02:26:32;10.02;;;5.88;;
69985;SDS011;57328;52.054;5.294;2023-09-07T02:29:00;7.55;;;4.07;;
69985;SDS011;57328;52.054;5.294;2023-09-07T02:31:31;12.82;;;7.30;;
69985;SDS011;57328;52.054;5.294;2023-09-07T02:33:58;10.18;;;5.13;;
69985;SDS011;57328;52.054;5.294;2023-09-07T02:36:26;7.03;;;3.85;;
69985;SDS011;57328;52.054;5.294;2023-09-07T02:38:53;9.88;;;5.65;;
69985;SDS011;57328;52.054;5.294;2023-09-07T02:41:20;6.30;;;3.75;;
69985;SDS011;57328;52.054;5.294;2023-09-07T02:43:48;7.65;;;3.70;;
69985;SDS011;57328;52.054;5.294;2023-09-07T02:46:15;6.90;;;3.70;;
69985;SDS011;57328;52.054;5.294;2023-09-07T02:48:42;10.93;;;5.95;;
69985;SDS011;57328;52.054;5.294;2023-09-07T02:51:10;10.43;;;5.70;;
69985;SDS011;57328;52.054;5.294;2023-09-07T02:53:37;10.25;;;5.68;;
69985;SDS011;57328;52.054;5.294;2023-09-07T02:56:04;11.88;;;6.45;;
69985;SDS011;57328;52.054;5.294;2023-09-07T02:58:32;10.90;;;5.97;;
69985;SDS011;57328;52.054;5.294;2023-09-07T03:03:27;12.77;;;7.05;;
69985;SDS011;57328;52.054;5.294;2023-09-07T03:05:56;9.90;;;6.15;;
69985;SDS011;57328;52.054;5.294;2023-09-07T03:08:23;9.43;;;6.05;;
69985;SDS011;57328;52.054;5.294;2023-09-07T03:10:51;13.20;;;6.20;;
69985;SDS011;57328;52.054;5.294;2023-09-07T03:13:18;12.93;;;6.20;;
69985;SDS011;57328;52.054;5.294;2023-09-07T03:15:45;11.48;;;6.82;;
69985;SDS011;57328;52.054;5.294;2023-09-07T03:18:13;11.88;;;6.20;;
69985;SDS011;57328;52.054;5.294;2023-09-07T03:20:40;13.15;;;6.43;;
69985;SDS011;57328;52.054;5.294;2023-09-07T03:23:07;10.88;;;6.13;;
69985;SDS011;57328;52.054;5.294;2023-09-07T03:25:34;15.77;;;7.50;;
69985;SDS011;57328;52.054;5.294;2023-09-07T03:28:02;14.50;;;7.20;;
69985;SDS011;57328;52.054;5.294;2023-09-07T03:30:30;13.13;;;6.97;;
69985;SDS011;57328;52.054;5.294;2023-09-07T03:32:57;12.57;;;7.40;;
69985;SDS011;57328;52.054;5.294;2023-09-07T03:35:24;13.50;;;6.90;;
69985;SDS011;57328;52.054;5.294;2023-09-07T03:37:52;14.23;;;6.80;;
69985;SDS011;57328;52.054;5.294;2023-09-07T03:40:19;11.98;;;6.45;;
69985;SDS011;57328;52.054;5.294;2023-09-07T03:42:46;8.77;;;4.90;;
69985;SDS011;57328;52.054;5.294;2023-09-07T03:45:13;9.40;;;4.22;;
69985;SDS011;57328;52.054;5.294;2023-09-07T03:47:41;7.57;;;4.03;;
69985;SDS011;57328;52.054;5.294;2023-09-07T03:50:08;11.43;;;7.10;;
69985;SDS011;57328;52.054;5.294;2023-09-07T03:52:36;11.68;;;6.80;;
69985;SDS011;57328;52.054;5.294;2023-09-07T03:55:03;11.63;;;6.25;;
69985;SDS011;57328;52.054;5.294;2023-09-07T03:57:31;11.20;;;6.55;;
69985;SDS011;57328;52.054;5.294;2023-09-07T03:59:58;8.43;;;4.82;;
69985;SDS011;57328;52.054;5.294;2023-09-07T04:02:25;8.90;;;4.35;;
69985;SDS011;57328;52.054;5.294;2023-09-07T04:04:53;11.85;;;7.63;;
69985;SDS011;57328;52.054;5.294;2023-09-07T04:07:21;10.95;;;4.93;;
69985;SDS011;57328;52.054;5.294;2023-09-07T04:09:49;10.48;;;4.63;;
69985;SDS011;57328;52.054;5.294;2023-09-07T04:12:17;9.60;;;5.63;;
69985;SDS011;57328;52.054;5.294;2023-09-07T04:14:44;10.60;;;5.70;;
69985;SDS011;57328;52.054;5.294;2023-09-07T04:17:11;11.65;;;7.00;;
69985;SDS011;57328;52.054;5.294;2023-09-07T04:19:38;10.77;;;6.53;;
69985;SDS011;57328;52.054;5.294;2023-09-07T04:22:06;12.35;;;7.47;;
69985;SDS011;57328;52.054;5.294;2023-09-07T04:24:33;11.43;;;7.07;;
69985;SDS011;57328;52.054;5.294;2023-09-07T04:27:00;9.25;;;4.63;;
69985;SDS011;57328;52.054;5.294;2023-09-07T04:29:28;11.32;;;6.20;;
69985;SDS011;57328;52.054;5.294;2023-09-07T04:31:55;8.40;;;4.60;;
69985;SDS011;57328;52.054;5.294;2023-09-07T04:34:23;13.68;;;7.15;;
69985;SDS011;57328;52.054;5.294;2023-09-07T04:36:50;12.40;;;7.30;;
69985;SDS011;57328;52.054;5.294;2023-09-07T04:39:17;10.75;;;6.10;;
69985;SDS011;57328;52.054;5.294;2023-09-07T04:41:45;14.55;;;7.40;;
69985;SDS011;57328;52.054;5.294;2023-09-07T04:44:12;12.00;;;7.38;;
69985;SDS011;57328;52.054;5.294;2023-09-07T04:46:39;13.18;;;7.80;;
69985;SDS011;57328;52.054;5.294;2023-09-07T04:49:07;15.13;;;7.18;;
69985;SDS011;57328;52.054;5.294;2023-09-07T04:51:34;9.40;;;5.03;;
69985;SDS011;57328;52.054;5.294;2023-09-07T04:54:01;11.77;;;6.38;;
69985;SDS011;57328;52.054;5.294;2023-09-07T04:56:28;11.48;;;6.85;;
69985;SDS011;57328;52.054;5.294;2023-09-07T04:58:56;13.07;;;7.40;;
69985;SDS011;57328;52.054;5.294;2023-09-07T05:01:23;14.25;;;7.68;;
69985;SDS011;57328;52.054;5.294;2023-09-07T05:03:50;12.38;;;6.53;;
69985;SDS011;57328;52.054;5.294;2023-09-07T05:06:18;8.95;;;5.22;;
69985;SDS011;57328;52.054;5.294;2023-09-07T05:08:45;13.95;;;6.03;;
69985;SDS011;57328;52.054;5.294;2023-09-07T05:11:13;9.23;;;4.95;;
69985;SDS011;57328;52.054;5.294;2023-09-07T05:13:40;12.38;;;6.95;;
69985;SDS011;57328;52.054;5.294;2023-09-07T05:16:07;13.07;;;8.18;;
69985;SDS011;57328;52.054;5.294;2023-09-07T05:18:34;16.90;;;8.50;;
69985;SDS011;57328;52.054;5.294;2023-09-07T05:21:10;13.60;;;7.65;;
69985;SDS011;57328;52.054;5.294;2023-09-07T05:23:39;14.65;;;8.13;;
69985;SDS011;57328;52.054;5.294;2023-09-07T05:26:06;15.75;;;8.00;;
69985;SDS011;57328;52.054;5.294;2023-09-07T05:28:33;12.30;;;7.20;;
69985;SDS011;57328;52.054;5.294;2023-09-07T05:31:01;9.77;;;4.72;;
69985;SDS011;57328;52.054;5.294;2023-09-07T05:33:28;10.15;;;5.45;;
69985;SDS011;57328;52.054;5.294;2023-09-07T05:35:56;10.80;;;4.88;;
69985;SDS011;57328;52.054;5.294;2023-09-07T05:38:23;11.90;;;7.20;;
69985;SDS011;57328;52.054;5.294;2023-09-07T05:40:51;9.38;;;4.25;;
69985;SDS011;57328;52.054;5.294;2023-09-07T05:43:20;10.63;;;5.03;;
69985;SDS011;57328;52.054;5.294;2023-09-07T05:45:48;9.80;;;5.28;;
69985;SDS011;57328;52.054;5.294;2023-09-07T05:48:16;12.38;;;6.82;;
69985;SDS011;57328;52.054;5.294;2023-09-07T05:50:44;11.02;;;5.53;;
69985;SDS011;57328;52.054;5.294;2023-09-07T05:53:11;9.13;;;4.70;;
69985;SDS011;57328;52.054;5.294;2023-09-07T05:55:38;10.40;;;6.25;;
69985;SDS011;57328;52.054;5.294;2023-09-07T05:58:06;11.32;;;5.78;;
69985;SDS011;57328;52.054;5.294;2023-09-07T06:00:34;11.63;;;6.15;;
69985;SDS011;57328;52.054;5.294;2023-09-07T06:03:02;8.95;;;5.22;;
69985;SDS011;57328;52.054;5.294;2023-09-07T06:05:30;11.93;;;6.90;;
69985;SDS011;57328;52.054;5.294;2023-09-07T06:07:57;11.52;;;6.22;;
69985;SDS011;57328;52.054;5.294;2023-09-07T06:10:24;14.35;;;6.93;;
69985;SDS011;57328;52.054;5.294;2023-09-07T06:12:51;10.70;;;6.25;;
69985;SDS011;57328;52.054;5.294;2023-09-07T06:15:18;12.80;;;6.47;;
69985;SDS011;57328;52.054;5.294;2023-09-07T06:17:45;10.27;;;6.13;;
69985;SDS011;57328;52.054;5.294;2023-09-07T06:20:13;11.27;;;6.72;;
69985;SDS011;57328;52.054;5.294;2023-09-07T06:22:40;10.90;;;6.75;;
69985;SDS011;57328;52.054;5.294;2023-09-07T06:25:07;9.95;;;6.50;;
69985;SDS011;57328;52.054;5.294;2023-09-07T06:27:35;11.80;;;6.32;;
69985;SDS011;57328;52.054;5.294;2023-09-07T06:30:02;9.93;;;6.43;;
69985;SDS011;57328;52.054;5.294;2023-09-07T06:32:29;10.38;;;6.15;;
69985;SDS011;57328;52.054;5.294;2023-09-07T06:34:57;10.75;;;6.78;;
69985;SDS011;57328;52.054;5.294;2023-09-07T06:37:24;8.88;;;5.93;;
69985;SDS011;57328;52.054;5.294;2023-09-07T06:39:52;11.40;;;6.80;;
69985;SDS011;57328;52.054;5.294;2023-09-07T06:42:19;10.02;;;6.07;;
69985;SDS011;57328;52.054;5.294;2023-09-07T06:44:46;10.73;;;6.85;;
69985;SDS011;57328;52.054;5.294;2023-09-07T06:47:13;10.02;;;5.95;;
69985;SDS011;57328;52.054;5.294;2023-09-07T06:49:41;12.25;;;5.80;;
69985;SDS011;57328;52.054;5.294;2023-09-07T06:52:08;9.00;;;6.00;;
69985;SDS011;57328;52.054;5.294;2023-09-07T06:54:35;11.35;;;6.00;;
69985;SDS011;57328;52.054;5.294;2023-09-07T06:57:03;9.13;;;5.85;;
69985;SDS011;57328;52.054;5.294;2023-09-07T06:59:33;9.65;;;5.72;;
69985;SDS011;57328;52.054;5.294;2023-09-07T07:04:31;11.10;;;6.60;;
69985;SDS011;57328;52.054;5.294;2023-09-07T07:06:59;8.73;;;5.78;;
69985;SDS011;57328;52.054;5.294;2023-09-07T07:09:30;8.98;;;5.85;;
69985;SDS011;57328;52.054;5.294;2023-09-07T07:14:25;9.88;;;5.53;;
69985;SDS011;57328;52.054;5.294;2023-09-07T07:16:52;7.68;;;5.13;;
69985;SDS011;57328;52.054;5.294;2023-09-07T07:19:19;8.48;;;5.47;;
69985;SDS011;57328;52.054;5.294;2023-09-07T07:21:48;11.25;;;5.70;;
69985;SDS011;57328;52.054;5.294;2023-09-07T07:24:15;9.48;;;5.38;;
69985;SDS011;57328;52.054;5.294;2023-09-07T07:26:44;8.60;;;4.88;;
69985;SDS011;57328;52.054;5.294;2023-09-07T07:29:11;9.82;;;5.30;;
69985;SDS011;57328;52.054;5.294;2023-09-07T07:31:38;8.45;;;5.05;;
69985;SDS011;57328;52.054;5.294;2023-09-07T07:34:05;9.25;;;4.97;;
69985;SDS011;57328;52.054;5.294;2023-09-07T07:36:33;10.38;;;5.28;;
69985;SDS011;57328;52.054;5.294;2023-09-07T07:39:00;11.65;;;5.30;;
69985;SDS011;57328;52.054;5.294;2023-09-07T07:41:28;8.90;;;4.82;;
69985;SDS011;57328;52.054;5.294;2023-09-07T07:43:55;7.03;;;4.28;;
69985;SDS011;57328;52.054;5.294;2023-09-07T07:46:22;7.75;;;3.75;;
69985;SDS011;57328;52.054;5.294;2023-09-07T07:48:50;7.95;;;3.90;;
69985;SDS011;57328;52.054;5.294;2023-09-07T07:51:18;8.57;;;3.90;;
69985;SDS011;57328;52.054;5.294;2023-09-07T07:53:46;5.60;;;3.45;;
69985;SDS011;57328;52.054;5.294;2023-09-07T07:56:16;5.15;;;2.95;;
69985;SDS011;57328;52.054;5.294;2023-09-07T07:58:45;6.30;;;3.40;;
69985;SDS011;57328;52.054;5.294;2023-09-07T08:01:16;6.32;;;3.30;;
69985;SDS011;57328;52.054;5.294;2023-09-07T08:03:45;5.13;;;2.83;;
69985;SDS011;57328;52.054;5.294;2023-09-07T08:06:12;10.63;;;3.58;;
69985;SDS011;57328;52.054;5.294;2023-09-07T08:08:40;11.20;;;3.50;;
69985;SDS011;57328;52.054;5.294;2023-09-07T08:11:07;5.75;;;3.05;;
69985;SDS011;57328;52.054;5.294;2023-09-07T08:13:35;11.43;;;3.88;;
69985;SDS011;57328;52.054;5.294;2023-09-07T08:16:04;14.68;;;3.30;;
69985;SDS011;57328;52.054;5.294;2023-09-07T08:18:34;7.15;;;3.40;;
69985;SDS011;57328;52.054;5.294;2023-09-07T08:21:03;7.07;;;3.63;;
69985;SDS011;57328;52.054;5.294;2023-09-07T08:23:31;7.38;;;4.22;;
69985;SDS011;57328;52.054;5.294;2023-09-07T08:28:31;8.50;;;3.75;;
69985;SDS011;57328;52.054;5.294;2023-09-07T08:31:12;14.80;;;3.88;;
69985;SDS011;57328;52.054;5.294;2023-09-07T08:34:01;10.45;;;3.35;;
69985;SDS011;57328;52.054;5.294;2023-09-07T08:36:45;11.82;;;3.80;;
69985;SDS011;57328;52.054;5.294;2023-09-07T08:39:27;6.80;;;3.05;;
69985;SDS011;57328;52.054;5.294;2023-09-07T08:42:09;7.32;;;3.30;;
69985;SDS011;57328;52.054;5.294;2023-09-07T08:44:50;5.47;;;2.90;;
69985;SDS011;57328;52.054;5.294;2023-09-07T08:47:35;7.32;;;2.80;;
69985;SDS011;57328;52.054;5.294;2023-09-07T08:50:17;8.75;;;3.08;;
69985;SDS011;57328;52.054;5.294;2023-09-07T08:52:58;8.18;;;3.28;;
69985;SDS011;57328;52.054;5.294;2023-09-07T08:55:43;6.80;;;3.20;;
69985;SDS011;57328;52.054;5.294;2023-09-07T08:58:24;16.05;;;3.53;;
69985;SDS011;57328;52.054;5.294;2023-09-07T09:01:06;9.43;;;2.90;;
69985;SDS011;57328;52.054;5.294;2023-09-07T09:03:48;5.47;;;2.80;;
69985;SDS011;57328;52.054;5.294;2023-09-07T09:06:30;7.15;;;2.75;;
69985;SDS011;57328;52.054;5.294;2023-09-07T09:09:11;8.70;;;2.97;;
69985;SDS011;57328;52.054;5.294;2023-09-07T09:12:10;6.55;;;2.92;;
69985;SDS011;57328;52.054;5.294;2023-09-07T09:14:38;6.20;;;2.83;;
69985;SDS011;57328;52.054;5.294;2023-09-07T09:17:06;4.68;;;3.20;;
69985;SDS011;57328;52.054;5.294;2023-09-07T09:19:40;6.88;;;3.35;;
69985;SDS011;57328;52.054;5.294;2023-09-07T09:22:21;7.68;;;3.28;;
69985;SDS011;57328;52.054;5.294;2023-09-07T09:25:07;6.78;;;2.78;;
69985;SDS011;57328;52.054;5.294;2023-09-07T09:27:48;7.03;;;2.78;;
69985;SDS011;57328;52.054;5.294;2023-09-07T09:30:30;10.10;;;3.30;;
69985;SDS011;57328;52.054;5.294;2023-09-07T09:33:11;7.88;;;3.03;;
69985;SDS011;57328;52.054;5.294;2023-09-07T09:35:53;7.13;;;3.13;;
69985;SDS011;57328;52.054;5.294;2023-09-07T09:38:35;5.53;;;2.90;;
69985;SDS011;57328;52.054;5.294;2023-09-07T09:41:17;7.03;;;2.80;;
69985;SDS011;57328;52.054;5.294;2023-09-07T09:43:58;8.80;;;2.83;;
69985;SDS011;57328;52.054;5.294;2023-09-07T09:46:40;6.50;;;3.00;;
69985;SDS011;57328;52.054;5.294;2023-09-07T09:49:22;5.93;;;2.78;;
69985;SDS011;57328;52.054;5.294;2023-09-07T09:52:03;7.35;;;3.10;;
69985;SDS011;57328;52.054;5.294;2023-09-07T09:54:45;9.65;;;3.47;;
69985;SDS011;57328;52.054;5.294;2023-09-07T09:57:27;5.85;;;3.05;;
69985;SDS011;57328;52.054;5.294;2023-09-07T10:00:09;9.52;;;3.38;;
69985;SDS011;57328;52.054;5.294;2023-09-07T10:03:08;6.45;;;3.20;;
69985;SDS011;57328;52.054;5.294;2023-09-07T10:05:51;7.45;;;3.65;;
69985;SDS011;57328;52.054;5.294;2023-09-07T10:08:32;5.97;;;3.30;;
69985;SDS011;57328;52.054;5.294;2023-09-07T10:11:13;8.80;;;3.35;;
69985;SDS011;57328;52.054;5.294;2023-09-07T10:14:01;5.35;;;2.90;;
69985;SDS011;57328;52.054;5.294;2023-09-07T10:19:27;6.35;;;3.70;;
69985;SDS011;57328;52.054;5.294;2023-09-07T10:22:08;8.18;;;3.17;;
69985;SDS011;57328;52.054;5.294;2023-09-07T10:24:56;5.70;;;3.10;;
69985;SDS011;57328;52.054;5.294;2023-09-07T10:27:38;5.32;;;3.03;;
69985;SDS011;57328;52.054;5.294;2023-09-07T10:30:19;7.05;;;3.28;;
69985;SDS011;57328;52.054;5.294;2023-09-07T10:33:03;9.63;;;3.33;;
69985;SDS011;57328;52.054;5.294;2023-09-07T10:35:45;5.82;;;3.20;;
69985;SDS011;57328;52.054;5.294;2023-09-07T10:38:27;6.57;;;3.00;;
69985;SDS011;57328;52.054;5.294;2023-09-07T10:41:08;9.60;;;3.15;;
69985;SDS011;57328;52.054;5.294;2023-09-07T10:43:55;6.55;;;3.20;;
69985;SDS011;57328;52.054;5.294;2023-09-07T10:46:37;7.75;;;3.45;;
69985;SDS011;57328;52.054;5.294;2023-09-07T10:49:22;7.28;;;3.13;;
69985;SDS011;57328;52.054;5.294;2023-09-07T10:52:03;15.50;;;3.38;;
69985;SDS011;57328;52.054;5.294;2023-09-07T10:54:44;14.45;;;3.47;;
69985;SDS011;57328;52.054;5.294;2023-09-07T10:57:26;7.22;;;3.20;;
69985;SDS011;57328;52.054;5.294;2023-09-07T11:00:07;6.57;;;3.28;;
69985;SDS011;57328;52.054;5.294;2023-09-07T11:02:50;12.10;;;3.25;;
69985;SDS011;57328;52.054;5.294;2023-09-07T11:05:31;7.32;;;3.33;;
69985;SDS011;57328;52.054;5.294;2023-09-07T11:08:15;16.98;;;3.55;;
69985;SDS011;57328;52.054;5.294;2023-09-07T11:10:56;14.20;;;3.72;;
69985;SDS011;57328;52.054;5.294;2023-09-07T11:13:37;13.02;;;3.28;;
69985;SDS011;57328;52.054;5.294;2023-09-07T11:16:18;7.55;;;3.22;;
69985;SDS011;57328;52.054;5.294;2023-09-07T11:19:03;12.02;;;3.88;;
69985;SDS011;57328;52.054;5.294;2023-09-07T11:21:45;8.70;;;3.28;;
69985;SDS011;57328;52.054;5.294;2023-09-07T11:24:26;6.60;;;3.30;;
69985;SDS011;57328;52.054;5.294;2023-09-07T11:27:08;6.88;;;3.20;;
69985;SDS011;57328;52.054;5.294;2023-09-07T11:29:50;9.77;;;3.90;;
69985;SDS011;57328;52.054;5.294;2023-09-07T11:32:33;10.63;;;3.88;;
69985;SDS011;57328;52.054;5.294;2023-09-07T11:35:14;6.13;;;3.10;;
69985;SDS011;57328;52.054;5.294;2023-09-07T11:37:56;7.57;;;3.40;;
69985;SDS011;57328;52.054;5.294;2023-09-07T11:40:37;9.32;;;3.63;;
69985;SDS011;57328;52.054;5.294;2023-09-07T11:43:18;7.20;;;3.58;;
69985;SDS011;57328;52.054;5.294;2023-09-07T11:45:59;7.47;;;3.60;;
69985;SDS011;57328;52.054;5.294;2023-09-07T11:48:41;7.80;;;3.55;;
69985;SDS011;57328;52.054;5.294;2023-09-07T11:51:22;10.77;;;3.72;;
69985;SDS011;57328;52.054;5.294;2023-09-07T11:54:03;40.05;;;4.95;;
69985;SDS011;57328;52.054;5.294;2023-09-07T11:56:45;7.78;;;3.40;;
69985;SDS011;57328;52.054;5.294;2023-09-07T11:59:27;8.13;;;4.10;;
69985;SDS011;57328;52.054;5.294;2023-09-07T12:02:09;8.10;;;3.10;;
69985;SDS011;57328;52.054;5.294;2023-09-07T12:04:55;6.18;;;3.22;;
69985;SDS011;57328;52.054;5.294;2023-09-07T12:07:36;8.75;;;3.50;;
69985;SDS011;57328;52.054;5.294;2023-09-07T12:10:17;10.23;;;4.05;;
69985;SDS011;57328;52.054;5.294;2023-09-07T12:12:58;5.05;;;3.05;;
69985;SDS011;57328;52.054;5.294;2023-09-07T12:15:28;5.95;;;3.20;;
69985;SDS011;57328;52.054;5.294;2023-09-07T12:18:04;7.88;;;3.03;;
69985;SDS011;57328;52.054;5.294;2023-09-07T12:20:45;10.05;;;3.55;;
69985;SDS011;57328;52.054;5.294;2023-09-07T12:23:26;5.72;;;3.35;;
69985;SDS011;57328;52.054;5.294;2023-09-07T12:26:07;17.45;;;4.20;;
69985;SDS011;57328;52.054;5.294;2023-09-07T12:28:48;6.13;;;3.15;;
69985;SDS011;57328;52.054;5.294;2023-09-07T12:31:30;8.23;;;3.30;;
69985;SDS011;57328;52.054;5.294;2023-09-07T12:34:11;14.32;;;3.75;;
69985;SDS011;57328;52.054;5.294;2023-09-07T12:36:53;7.22;;;2.70;;
69985;SDS011;57328;52.054;5.294;2023-09-07T12:39:34;7.07;;;3.70;;
69985;SDS011;57328;52.054;5.294;2023-09-07T12:42:16;8.30;;;3.30;;
69985;SDS011;57328;52.054;5.294;2023-09-07T12:44:57;7.82;;;3.17;;
69985;SDS011;57328;52.054;5.294;2023-09-07T12:47:39;7.60;;;3.30;;
69985;SDS011;57328;52.054;5.294;2023-09-07T12:50:20;6.63;;;3.17;;
69985;SDS011;57328;52.054;5.294;2023-09-07T12:53:03;8.60;;;3.40;;
69985;SDS011;57328;52.054;5.294;2023-09-07T12:55:44;9.10;;;3.28;;
69985;SDS011;57328;52.054;5.294;2023-09-07T12:58:16;6.80;;;3.30;;
69985;SDS011;57328;52.054;5.294;2023-09-07T13:00:43;6.93;;;3.13;;
69985;SDS011;57328;52.054;5.294;2023-09-07T13:03:11;6.90;;;3.13;;
69985;SDS011;57328;52.054;5.294;2023-09-07T13:05:39;8.18;;;3.53;;
69985;SDS011;57328;52.054;5.294;2023-09-07T13:08:07;7.53;;;3.20;;
69985;SDS011;57328;52.054;5.294;2023-09-07T13:10:34;6.82;;;3.22;;
69985;SDS011;57328;52.054;5.294;2023-09-07T13:13:01;5.70;;;3.15;;
69985;SDS011;57328;52.054;5.294;2023-09-07T13:15:42;6.78;;;3.30;;
69985;SDS011;57328;52.054;5.294;2023-09-07T13:18:24;7.10;;;3.38;;
69985;SDS011;57328;52.054;5.294;2023-09-07T13:21:05;6.93;;;2.90;;
69985;SDS011;57328;52.054;5.294;2023-09-07T13:23:46;6.28;;;3.53;;
69985;SDS011;57328;52.054;5.294;2023-09-07T13:26:27;5.85;;;3.17;;
69985;SDS011;57328;52.054;5.294;2023-09-07T13:29:08;6.22;;;2.92;;
69985;SDS011;57328;52.054;5.294;2023-09-07T13:31:53;6.65;;;2.83;;
69985;SDS011;57328;52.054;5.294;2023-09-07T13:34:34;6.53;;;3.10;;
69985;SDS011;57328;52.054;5.294;2023-09-07T13:37:15;7.13;;;3.33;;
69985;SDS011;57328;52.054;5.294;2023-09-07T13:39:56;8.30;;;3.40;;
69985;SDS011;57328;52.054;5.294;2023-09-07T13:42:37;6.07;;;3.08;;
69985;SDS011;57328;52.054;5.294;2023-09-07T13:45:19;5.97;;;3.20;;
69985;SDS011;57328;52.054;5.294;2023-09-07T13:48:01;11.02;;;3.28;;
69985;SDS011;57328;52.054;5.294;2023-09-07T13:50:42;6.75;;;3.45;;
69985;SDS011;57328;52.054;5.294;2023-09-07T13:53:23;9.35;;;3.55;;
69985;SDS011;57328;52.054;5.294;2023-09-07T13:56:04;7.10;;;3.63;;
69985;SDS011;57328;52.054;5.294;2023-09-07T13:58:45;5.30;;;3.05;;
69985;SDS011;57328;52.054;5.294;2023-09-07T14:01:27;8.52;;;3.47;;
69985;SDS011;57328;52.054;5.294;2023-09-07T14:04:08;7.32;;;2.92;;
69985;SDS011;57328;52.054;5.294;2023-09-07T14:06:37;5.90;;;3.20;;
69985;SDS011;57328;52.054;5.294;2023-09-07T14:09:04;5.70;;;3.05;;
69985;SDS011;57328;52.054;5.294;2023-09-07T14:11:33;7.38;;;3.38;;
69985;SDS011;57328;52.054;5.294;2023-09-07T14:14:00;5.03;;;3.28;;
69985;SDS011;57328;52.054;5.294;2023-09-07T14:16:28;7.03;;;3.17;;
69985;SDS011;57328;52.054;5.294;2023-09-07T14:19:00;8.10;;;3.50;;
69985;SDS011;57328;52.054;5.294;2023-09-07T14:21:28;7.50;;;3.13;;
69985;SDS011;57328;52.054;5.294;2023-09-07T14:23:55;6.82;;;3.13;;
69985;SDS011;57328;52.054;5.294;2023-09-07T14:26:22;9.75;;;3.90;;
69985;SDS011;57328;52.054;5.294;2023-09-07T14:31:17;7.35;;;3.10;;
69985;SDS011;57328;52.054;5.294;2023-09-07T14:33:45;7.05;;;3.00;;
69985;SDS011;57328;52.054;5.294;2023-09-07T14:36:26;7.47;;;3.15;;
69985;SDS011;57328;52.054;5.294;2023-09-07T14:39:07;7.07;;;3.22;;
69985;SDS011;57328;52.054;5.294;2023-09-07T14:41:50;5.93;;;3.10;;
69985;SDS011;57328;52.054;5.294;2023-09-07T14:44:34;6.65;;;3.22;;
69985;SDS011;57328;52.054;5.294;2023-09-07T14:47:15;6.07;;;3.38;;
69985;SDS011;57328;52.054;5.294;2023-09-07T14:49:56;6.57;;;3.47;;
69985;SDS011;57328;52.054;5.294;2023-09-07T14:52:38;7.18;;;3.60;;
69985;SDS011;57328;52.054;5.294;2023-09-07T14:55:22;7.80;;;3.35;;
69985;SDS011;57328;52.054;5.294;2023-09-07T14:58:03;8.38;;;3.55;;
69985;SDS011;57328;52.054;5.294;2023-09-07T15:00:44;8.25;;;3.35;;
69985;SDS011;57328;52.054;5.294;2023-09-07T15:03:25;7.50;;;3.55;;
69985;SDS011;57328;52.054;5.294;2023-09-07T15:06:06;6.55;;;3.58;;
69985;SDS011;57328;52.054;5.294;2023-09-07T15:08:51;7.60;;;3.78;;
69985;SDS011;57328;52.054;5.294;2023-09-07T15:11:32;8.82;;;3.13;;
69985;SDS011;57328;52.054;5.294;2023-09-07T15:14:13;6.97;;;3.60;;
69985;SDS011;57328;52.054;5.294;2023-09-07T15:16:56;5.57;;;3.40;;
69985;SDS011;57328;52.054;5.294;2023-09-07T15:19:39;6.93;;;3.60;;
69985;SDS011;57328;52.054;5.294;2023-09-07T15:22:25;7.40;;;3.47;;
69985;SDS011;57328;52.054;5.294;2023-09-07T15:25:06;9.02;;;3.53;;
69985;SDS011;57328;52.054;5.294;2023-09-07T15:27:47;7.53;;;3.50;;
69985;SDS011;57328;52.054;5.294;2023-09-07T15:30:28;7.20;;;3.47;;
69985;SDS011;57328;52.054;5.294;2023-09-07T15:32:56;6.15;;;3.70;;
69985;SDS011;57328;52.054;5.294;2023-09-07T15:41:47;11.20;;;4.20;;